createdAt,value
2022-10-19T00:00:05.956Z,14.99
2022-10-19T00:00:27.020Z,15.00
2022-10-19T00:00:48.078Z,14.99
2022-10-19T00:01:09.128Z,14.99
2022-10-19T00:01:30.360Z,14.99
2022-10-19T00:01:51.499Z,14.99
2022-10-19T00:02:12.551Z,14.98
2022-10-19T00:02:33.670Z,14.97
2022-10-19T00:02:54.712Z,14.98
2022-10-19T00:03:18.269Z,14.97
2022-10-19T00:03:42.849Z,14.98
2022-10-19T00:04:07.841Z,14.97
2022-10-19T00:04:30.857Z,14.98
2022-10-19T00:04:51.923Z,14.97
2022-10-19T00:05:12.974Z,14.97
2022-10-19T00:05:34.029Z,14.97
2022-10-19T00:05:55.080Z,14.96
2022-10-19T00:06:16.137Z,14.97
2022-10-19T00:06:37.329Z,14.97
2022-10-19T00:06:58.367Z,14.97
2022-10-19T00:07:19.431Z,14.97
2022-10-19T00:07:40.471Z,14.96
2022-10-19T00:08:01.519Z,14.96
2022-10-19T00:08:22.569Z,14.97
2022-10-19T00:08:43.620Z,14.96
2022-10-19T00:09:04.682Z,14.96
2022-10-19T00:09:25.734Z,14.96
2022-10-19T00:09:46.800Z,14.96
2022-10-19T00:10:07.839Z,14.95
2022-10-19T00:10:28.896Z,14.96
2022-10-19T00:10:49.964Z,14.96
2022-10-19T00:11:11.007Z,14.95
2022-10-19T00:11:32.056Z,14.95
2022-10-19T00:12:14.124Z,14.95
2022-10-19T00:12:35.246Z,14.96
2022-10-19T00:12:56.305Z,14.95
2022-10-19T00:13:17.355Z,14.95
2022-10-19T00:13:38.407Z,14.94
2022-10-19T00:13:59.481Z,14.96
2022-10-19T00:14:20.530Z,14.95
2022-10-19T00:14:41.581Z,14.95
2022-10-19T00:15:02.629Z,14.95
2022-10-19T00:15:23.670Z,14.95
2022-10-19T00:15:44.725Z,14.95
2022-10-19T00:16:06.839Z,14.95
2022-10-19T00:16:30.219Z,14.96
2022-10-19T00:16:51.428Z,14.95
2022-10-19T00:17:12.482Z,14.95
2022-10-19T00:17:33.787Z,14.95
2022-10-19T00:17:55.038Z,14.95
2022-10-19T00:18:16.098Z,14.95
2022-10-19T00:18:37.139Z,14.95
2022-10-19T00:18:58.198Z,14.95
2022-10-19T00:19:19.253Z,14.95
2022-10-19T00:19:40.319Z,14.95
2022-10-19T00:20:01.363Z,14.96
2022-10-19T00:20:22.411Z,14.96
2022-10-19T00:20:43.470Z,14.95
2022-10-19T00:21:04.521Z,14.96
2022-10-19T00:21:25.571Z,14.95
2022-10-19T00:21:46.678Z,14.95
2022-10-19T00:22:10.323Z,14.95
2022-10-19T00:22:34.935Z,14.95
2022-10-19T00:22:56.040Z,14.94
2022-10-19T00:23:17.103Z,14.95
2022-10-19T00:23:38.172Z,14.95
2022-10-19T00:23:59.224Z,14.95
2022-10-19T00:24:20.311Z,14.95
2022-10-19T00:24:41.373Z,14.95
2022-10-19T00:25:02.432Z,14.95
2022-10-19T00:25:23.491Z,14.95
2022-10-19T00:25:44.549Z,14.95
2022-10-19T00:26:05.603Z,14.95
2022-10-19T00:26:26.655Z,14.95
2022-10-19T00:26:47.708Z,14.95
2022-10-19T00:27:08.903Z,14.94
2022-10-19T00:27:29.990Z,14.95
2022-10-19T00:27:51.033Z,14.94
2022-10-19T00:28:12.086Z,14.94
2022-10-19T00:28:33.206Z,14.94
2022-10-19T00:28:54.355Z,14.94
2022-10-19T00:29:15.577Z,14.94
2022-10-19T00:29:36.704Z,14.93
2022-10-19T00:29:57.762Z,14.93
2022-10-19T00:30:18.817Z,14.93
2022-10-19T00:30:39.981Z,14.93
2022-10-19T00:31:01.024Z,14.93
2022-10-19T00:31:22.098Z,14.92
2022-10-19T00:31:43.136Z,14.92
2022-10-19T00:32:04.185Z,14.92
2022-10-19T00:32:25.268Z,14.91
2022-10-19T00:32:46.317Z,14.91
2022-10-19T00:33:07.374Z,14.91
2022-10-19T00:33:28.433Z,14.90
2022-10-19T00:33:49.499Z,14.90
2022-10-19T00:34:10.572Z,14.90
2022-10-19T00:34:31.618Z,14.90
2022-10-19T00:34:52.677Z,14.89
2022-10-19T00:35:13.709Z,14.89
2022-10-19T00:35:34.761Z,14.89
2022-10-19T00:35:55.819Z,14.88
2022-10-19T00:36:16.876Z,14.88
2022-10-19T00:36:37.937Z,14.88
2022-10-19T00:36:59.008Z,14.86
2022-10-19T00:37:20.052Z,14.87
2022-10-19T00:37:41.320Z,14.87
2022-10-19T00:38:02.400Z,14.86
2022-10-19T00:38:23.451Z,14.85
2022-10-19T00:38:44.511Z,14.85
2022-10-19T00:39:05.566Z,14.85
2022-10-19T00:39:26.625Z,14.84
2022-10-19T00:39:47.743Z,14.84
2022-10-19T00:40:08.774Z,14.84
2022-10-19T00:40:29.826Z,14.83
2022-10-19T00:40:50.883Z,14.83
2022-10-19T00:41:11.960Z,14.83
2022-10-19T00:41:32.987Z,14.83
2022-10-19T00:41:54.045Z,14.84
2022-10-19T00:42:15.099Z,14.83
2022-10-19T00:42:36.370Z,14.82
2022-10-19T00:42:57.390Z,14.82
2022-10-19T00:43:18.438Z,14.82
2022-10-19T00:43:39.493Z,14.82
2022-10-19T00:44:00.550Z,14.82
2022-10-19T00:44:21.607Z,14.82
2022-10-19T00:44:42.647Z,14.81
2022-10-19T00:45:03.709Z,14.81
2022-10-19T00:45:24.764Z,14.81
2022-10-19T00:45:45.809Z,14.80
2022-10-19T00:46:06.855Z,14.80
2022-10-19T00:46:27.907Z,14.80
2022-10-19T00:46:48.967Z,14.80
2022-10-19T00:47:10.023Z,14.80
2022-10-19T00:47:31.080Z,14.80
2022-10-19T00:47:52.137Z,14.80
2022-10-19T00:48:13.186Z,14.80
2022-10-19T00:48:34.235Z,14.80
2022-10-19T00:48:55.313Z,14.79
2022-10-19T00:49:16.334Z,14.78
2022-10-19T00:49:37.390Z,14.78
2022-10-19T00:49:58.452Z,14.78
2022-10-19T00:50:19.486Z,14.78
2022-10-19T00:50:40.540Z,14.77
2022-10-19T00:51:01.590Z,14.77
2022-10-19T00:51:22.642Z,14.77
2022-10-19T00:51:43.697Z,14.77
2022-10-19T00:52:04.753Z,14.77
2022-10-19T00:52:25.800Z,14.77
2022-10-19T00:52:46.981Z,14.77
2022-10-19T00:53:08.039Z,14.76
2022-10-19T00:53:29.094Z,14.77
2022-10-19T00:53:50.144Z,14.76
2022-10-19T00:54:11.215Z,14.76
2022-10-19T00:54:32.249Z,14.76
2022-10-19T00:54:53.304Z,14.76
2022-10-19T00:55:14.381Z,14.75
2022-10-19T00:55:35.427Z,14.75
2022-10-19T00:55:56.478Z,14.75
2022-10-19T00:56:17.538Z,14.75
2022-10-19T00:56:38.592Z,14.74
2022-10-19T00:56:59.651Z,14.74
2022-10-19T00:57:20.704Z,14.74
2022-10-19T00:57:41.958Z,14.74
2022-10-19T00:58:03.003Z,14.74
2022-10-19T00:58:24.059Z,14.74
2022-10-19T00:58:45.111Z,14.73
2022-10-19T00:59:06.172Z,14.73
2022-10-19T00:59:27.222Z,14.73
2022-10-19T00:59:48.284Z,14.73
2022-10-19T01:00:09.386Z,14.72
2022-10-19T01:00:30.407Z,14.72
2022-10-19T01:00:51.522Z,14.73
2022-10-19T01:01:12.603Z,14.73
2022-10-19T01:01:33.691Z,14.73
2022-10-19T01:01:54.736Z,14.73
2022-10-19T01:02:15.793Z,14.72
2022-10-19T01:02:37.082Z,14.72
2022-10-19T01:02:58.309Z,14.72
2022-10-19T01:03:19.363Z,14.71
2022-10-19T01:03:40.412Z,14.70
2022-10-19T01:04:01.456Z,14.71
2022-10-19T01:04:22.530Z,14.70
2022-10-19T01:04:43.567Z,14.70
2022-10-19T01:05:04.640Z,14.69
2022-10-19T01:05:25.664Z,14.69
2022-10-19T01:05:46.718Z,14.68
2022-10-19T01:06:07.767Z,14.69
2022-10-19T01:06:28.828Z,14.68
2022-10-19T01:07:10.924Z,14.68
2022-10-19T01:07:32.322Z,14.67
2022-10-19T01:07:53.801Z,14.67
2022-10-19T01:08:14.861Z,14.67
2022-10-19T01:08:35.900Z,14.67
2022-10-19T01:08:56.957Z,14.67
2022-10-19T01:09:18.000Z,14.66
2022-10-19T01:09:39.057Z,14.66
2022-10-19T01:10:00.115Z,14.65
2022-10-19T01:10:21.171Z,14.64
2022-10-19T01:10:42.229Z,14.64
2022-10-19T01:11:03.294Z,14.64
2022-10-19T01:11:24.340Z,14.63
2022-10-19T01:11:45.402Z,14.63
2022-10-19T01:12:06.465Z,14.62
2022-10-19T01:12:27.511Z,14.62
2022-10-19T01:12:48.564Z,14.61
2022-10-19T01:13:09.647Z,14.61
2022-10-19T01:13:30.698Z,14.60
2022-10-19T01:13:51.752Z,14.60
2022-10-19T01:14:12.797Z,14.60
2022-10-19T01:14:33.847Z,14.59
2022-10-19T01:14:54.907Z,14.59
2022-10-19T01:15:15.959Z,14.59
2022-10-19T01:15:37.014Z,14.58
2022-10-19T01:15:58.073Z,14.58
2022-10-19T01:16:19.123Z,14.58
2022-10-19T01:16:40.179Z,14.58
2022-10-19T01:17:01.240Z,14.58
2022-10-19T01:17:22.296Z,14.57
2022-10-19T01:17:43.359Z,14.58
2022-10-19T01:18:04.536Z,14.57
2022-10-19T01:18:25.585Z,14.57
2022-10-19T01:18:46.646Z,14.57
2022-10-19T01:19:07.708Z,14.56
2022-10-19T01:19:28.774Z,14.56
2022-10-19T01:19:49.830Z,14.56
2022-10-19T01:20:10.908Z,14.57
2022-10-19T01:20:31.979Z,14.56
2022-10-19T01:20:53.003Z,14.56
2022-10-19T01:21:14.059Z,14.56
2022-10-19T01:21:35.116Z,14.56
2022-10-19T01:21:56.168Z,14.56
2022-10-19T01:22:17.235Z,14.56
2022-10-19T01:22:38.279Z,14.55
2022-10-19T01:22:59.331Z,14.55
2022-10-19T01:23:20.532Z,14.55
2022-10-19T01:23:41.585Z,14.54
2022-10-19T01:24:02.640Z,14.55
2022-10-19T01:24:23.701Z,14.54
2022-10-19T01:24:44.797Z,14.54
2022-10-19T01:25:05.832Z,14.53
2022-10-19T01:25:26.902Z,14.54
2022-10-19T01:25:47.957Z,14.53
2022-10-19T01:26:09.026Z,14.53
2022-10-19T01:26:30.086Z,14.53
2022-10-19T01:26:51.146Z,14.53
2022-10-19T01:27:12.173Z,14.53
2022-10-19T01:27:33.672Z,14.53
2022-10-19T01:27:54.875Z,14.52
2022-10-19T01:28:15.926Z,14.52
2022-10-19T01:28:37.060Z,14.52
2022-10-19T01:28:58.157Z,14.52
2022-10-19T01:29:19.183Z,14.51
2022-10-19T01:29:40.242Z,14.51
2022-10-19T01:30:01.288Z,14.50
2022-10-19T01:30:22.344Z,14.49
2022-10-19T01:30:43.399Z,14.49
2022-10-19T01:31:04.464Z,14.49
2022-10-19T01:31:25.534Z,14.49
2022-10-19T01:31:46.588Z,14.48
2022-10-19T01:32:07.618Z,14.47
2022-10-19T01:32:28.671Z,14.47
2022-10-19T01:32:49.743Z,14.47
2022-10-19T01:33:10.784Z,14.46
2022-10-19T01:33:31.859Z,14.46
2022-10-19T01:33:53.021Z,14.46
2022-10-19T01:34:14.078Z,14.46
2022-10-19T01:34:35.132Z,14.45
2022-10-19T01:34:56.194Z,14.46
2022-10-19T01:35:17.282Z,14.45
2022-10-19T01:35:38.310Z,14.45
2022-10-19T01:35:59.366Z,14.44
2022-10-19T01:36:20.416Z,14.44
2022-10-19T01:36:41.464Z,14.43
2022-10-19T01:37:02.515Z,14.43
2022-10-19T01:37:23.572Z,14.42
2022-10-19T01:37:44.620Z,14.42
2022-10-19T01:38:05.669Z,14.42
2022-10-19T01:38:26.730Z,14.41
2022-10-19T01:38:47.790Z,14.41
2022-10-19T01:39:08.868Z,14.40
2022-10-19T01:39:29.921Z,14.40
2022-10-19T01:39:50.973Z,14.39
2022-10-19T01:40:12.024Z,14.39
2022-10-19T01:40:33.075Z,14.38
2022-10-19T01:40:54.128Z,14.39
2022-10-19T01:41:15.178Z,14.39
2022-10-19T01:41:36.229Z,14.38
2022-10-19T01:41:57.284Z,14.38
2022-10-19T01:42:18.331Z,14.38
2022-10-19T01:42:39.392Z,14.38
2022-10-19T01:43:00.453Z,14.37
2022-10-19T01:43:21.502Z,14.37
2022-10-19T01:43:42.551Z,14.36
2022-10-19T01:44:03.833Z,14.36
2022-10-19T01:44:24.851Z,14.36
2022-10-19T01:44:45.899Z,14.36
2022-10-19T01:45:06.986Z,14.35
2022-10-19T01:45:28.014Z,14.35
2022-10-19T01:45:49.088Z,14.35
2022-10-19T01:46:10.149Z,14.34
2022-10-19T01:46:31.226Z,14.34
2022-10-19T01:46:52.277Z,14.34
2022-10-19T01:47:13.338Z,14.34
2022-10-19T01:47:34.659Z,14.32
2022-10-19T01:47:55.895Z,14.32
2022-10-19T01:48:16.951Z,14.31
2022-10-19T01:48:37.993Z,14.31
2022-10-19T01:48:59.050Z,14.31
2022-10-19T01:49:20.130Z,14.30
2022-10-19T01:49:41.186Z,14.30
2022-10-19T01:50:02.272Z,14.30
2022-10-19T01:50:23.326Z,14.30
2022-10-19T01:50:44.362Z,14.30
2022-10-19T01:51:05.431Z,14.30
2022-10-19T01:51:26.478Z,14.30
2022-10-19T01:51:47.572Z,14.30
2022-10-19T01:52:08.606Z,14.29
2022-10-19T01:52:29.680Z,14.28
2022-10-19T01:52:50.735Z,14.28
2022-10-19T01:53:11.797Z,14.28
2022-10-19T01:53:32.848Z,14.27
2022-10-19T01:53:53.905Z,14.27
2022-10-19T01:54:15.007Z,14.26
2022-10-19T01:54:36.052Z,14.26
2022-10-19T01:54:57.111Z,14.25
2022-10-19T01:55:18.169Z,14.26
2022-10-19T01:55:39.215Z,14.25
2022-10-19T01:56:00.257Z,14.25
2022-10-19T01:56:21.308Z,14.24
2022-10-19T01:56:42.359Z,14.25
2022-10-19T01:57:03.408Z,14.24
2022-10-19T01:57:24.469Z,14.24
2022-10-19T01:57:45.517Z,14.23
2022-10-19T01:58:08.424Z,14.23
2022-10-19T01:58:30.637Z,14.23
2022-10-19T01:58:51.700Z,14.22
2022-10-19T01:59:12.748Z,14.22
2022-10-19T01:59:33.942Z,14.22
2022-10-19T01:59:54.990Z,14.20
2022-10-19T02:00:16.048Z,14.20
2022-10-19T02:00:37.233Z,14.20
2022-10-19T02:00:58.418Z,14.19
2022-10-19T02:01:19.511Z,14.19
2022-10-19T02:01:40.559Z,14.19
2022-10-19T02:02:01.611Z,14.18
2022-10-19T02:02:22.662Z,14.18
2022-10-19T02:02:43.710Z,14.18
2022-10-19T02:03:04.767Z,14.18
2022-10-19T02:03:25.829Z,14.17
2022-10-19T02:03:47.463Z,14.17
2022-10-19T02:04:08.500Z,14.17
2022-10-19T02:04:29.558Z,14.16
2022-10-19T02:04:50.642Z,14.17
2022-10-19T02:05:11.700Z,14.17
2022-10-19T02:05:32.768Z,14.16
2022-10-19T02:05:53.801Z,14.17
2022-10-19T02:06:14.864Z,14.16
2022-10-19T02:06:35.918Z,14.16
2022-10-19T02:06:56.975Z,14.15
2022-10-19T02:07:18.051Z,14.15
2022-10-19T02:07:39.093Z,14.14
2022-10-19T02:08:00.161Z,14.15
2022-10-19T02:08:21.220Z,14.14
2022-10-19T02:08:42.279Z,14.13
2022-10-19T02:09:03.321Z,14.14
2022-10-19T02:09:24.373Z,14.14
2022-10-19T02:09:45.455Z,14.13
2022-10-19T02:10:06.548Z,14.13
2022-10-19T02:10:27.576Z,14.13
2022-10-19T02:10:48.622Z,14.12
2022-10-19T02:11:09.683Z,14.12
2022-10-19T02:11:30.733Z,14.11
2022-10-19T02:11:54.660Z,14.11
2022-10-19T02:12:18.762Z,14.11
2022-10-19T02:12:39.824Z,14.10
2022-10-19T02:13:01.019Z,14.10
2022-10-19T02:13:22.072Z,14.09
2022-10-19T02:13:43.118Z,14.09
2022-10-19T02:14:04.165Z,14.09
2022-10-19T02:14:25.231Z,14.10
2022-10-19T02:14:46.304Z,14.08
2022-10-19T02:15:07.364Z,14.08
2022-10-19T02:15:28.424Z,14.07
2022-10-19T02:15:49.479Z,14.07
2022-10-19T02:16:10.539Z,14.07
2022-10-19T02:16:31.586Z,14.06
2022-10-19T02:16:52.638Z,14.06
2022-10-19T02:17:13.691Z,14.06
2022-10-19T02:17:34.740Z,14.05
2022-10-19T02:17:55.811Z,14.05
2022-10-19T02:18:16.857Z,14.05
2022-10-19T02:18:37.906Z,14.05
2022-10-19T02:18:58.962Z,14.05
2022-10-19T02:19:20.139Z,14.04
2022-10-19T02:19:41.175Z,14.04
2022-10-19T02:20:02.258Z,14.04
2022-10-19T02:20:23.293Z,14.04
2022-10-19T02:20:44.368Z,14.03
2022-10-19T02:21:05.439Z,14.04
2022-10-19T02:21:26.592Z,14.04
2022-10-19T02:21:47.619Z,14.03
2022-10-19T02:22:08.675Z,14.02
2022-10-19T02:22:29.728Z,14.03
2022-10-19T02:22:50.785Z,14.02
2022-10-19T02:23:11.832Z,14.03
2022-10-19T02:23:32.898Z,14.02
2022-10-19T02:23:54.318Z,14.02
2022-10-19T02:24:15.448Z,14.02
2022-10-19T02:24:36.505Z,14.02
2022-10-19T02:24:57.575Z,14.02
2022-10-19T02:25:18.653Z,14.01
2022-10-19T02:25:39.702Z,14.01
2022-10-19T02:26:00.800Z,14.01
2022-10-19T02:26:21.870Z,14.01
2022-10-19T02:26:42.922Z,14.00
2022-10-19T02:27:03.970Z,14.00
2022-10-19T02:27:25.038Z,14.00
2022-10-19T02:27:46.076Z,13.99
2022-10-19T02:28:07.127Z,13.99
2022-10-19T02:28:28.206Z,13.99
2022-10-19T02:28:49.240Z,13.99
2022-10-19T02:29:10.285Z,13.98
2022-10-19T02:29:31.357Z,13.99
2022-10-19T02:29:52.425Z,13.98
2022-10-19T02:30:13.483Z,13.98
2022-10-19T02:30:34.528Z,13.98
2022-10-19T02:30:55.578Z,13.98
2022-10-19T02:31:16.626Z,13.98
2022-10-19T02:31:37.681Z,13.97
2022-10-19T02:31:58.737Z,13.97
2022-10-19T02:32:19.799Z,13.96
2022-10-19T02:32:40.821Z,13.96
2022-10-19T02:33:01.875Z,13.95
2022-10-19T02:33:22.927Z,13.97
2022-10-19T02:33:43.992Z,13.95
2022-10-19T02:34:05.040Z,13.95
2022-10-19T02:34:26.111Z,13.95
2022-10-19T02:34:47.156Z,13.95
2022-10-19T02:35:08.339Z,13.95
2022-10-19T02:35:29.398Z,13.95
2022-10-19T02:35:50.466Z,13.95
2022-10-19T02:36:11.507Z,13.95
2022-10-19T02:36:32.558Z,13.95
2022-10-19T02:36:53.620Z,13.95
2022-10-19T02:37:14.719Z,13.94
2022-10-19T02:37:56.733Z,13.95
2022-10-19T02:38:17.786Z,13.94
2022-10-19T02:38:38.849Z,13.95
2022-10-19T02:38:59.904Z,13.94
2022-10-19T02:39:20.946Z,13.94
2022-10-19T02:39:42.008Z,13.94
2022-10-19T02:40:03.063Z,13.94
2022-10-19T02:40:24.114Z,13.94
2022-10-19T02:40:45.185Z,13.93
2022-10-19T02:41:06.216Z,13.94
2022-10-19T02:41:27.274Z,13.93
2022-10-19T02:41:48.353Z,13.92
2022-10-19T02:42:09.411Z,13.93
2022-10-19T02:42:30.580Z,13.92
2022-10-19T02:42:51.699Z,13.93
2022-10-19T02:43:12.749Z,13.92
2022-10-19T02:43:33.825Z,13.92
2022-10-19T02:43:54.860Z,13.93
2022-10-19T02:44:15.915Z,13.92
2022-10-19T02:44:36.966Z,13.92
2022-10-19T02:44:58.040Z,13.92
2022-10-19T02:45:19.092Z,13.92
2022-10-19T02:45:40.144Z,13.93
2022-10-19T02:46:01.203Z,13.92
2022-10-19T02:46:22.282Z,13.92
2022-10-19T02:46:43.341Z,13.91
2022-10-19T02:47:04.381Z,13.92
2022-10-19T02:47:25.450Z,13.91
2022-10-19T02:47:46.497Z,13.91
2022-10-19T02:48:07.542Z,13.91
2022-10-19T02:48:28.602Z,13.90
2022-10-19T02:48:49.663Z,13.90
2022-10-19T02:49:10.716Z,13.90
2022-10-19T02:49:31.755Z,13.90
2022-10-19T02:49:52.804Z,13.90
2022-10-19T02:50:13.882Z,13.90
2022-10-19T02:50:34.951Z,13.90
2022-10-19T02:50:56.027Z,13.89
2022-10-19T02:51:17.057Z,13.89
2022-10-19T02:51:38.114Z,13.89
2022-10-19T02:51:59.156Z,13.89
2022-10-19T02:52:20.213Z,13.89
2022-10-19T02:52:41.260Z,13.89
2022-10-19T02:53:02.333Z,13.89
2022-10-19T02:53:23.368Z,13.88
2022-10-19T02:53:44.419Z,13.89
2022-10-19T02:54:05.607Z,13.88
2022-10-19T02:54:26.683Z,13.89
2022-10-19T02:54:47.739Z,13.89
2022-10-19T02:55:08.816Z,13.89
2022-10-19T02:55:29.935Z,13.89
2022-10-19T02:55:51.008Z,13.89
2022-10-19T02:56:12.066Z,13.89
2022-10-19T02:56:33.118Z,13.89
2022-10-19T02:56:54.170Z,13.89
2022-10-19T02:57:15.212Z,13.88
2022-10-19T02:57:36.766Z,13.88
2022-10-19T02:57:57.993Z,13.88
2022-10-19T02:58:19.044Z,13.88
2022-10-19T02:58:40.096Z,13.88
2022-10-19T02:59:01.154Z,13.89
2022-10-19T02:59:22.215Z,13.88
2022-10-19T02:59:43.263Z,13.88
2022-10-19T03:00:04.319Z,13.87
2022-10-19T03:00:25.398Z,13.88
2022-10-19T03:00:46.511Z,13.87
2022-10-19T03:01:07.598Z,13.88
2022-10-19T03:01:28.609Z,13.87
2022-10-19T03:01:49.663Z,13.87
2022-10-19T03:02:10.709Z,13.87
2022-10-19T03:02:31.758Z,13.86
2022-10-19T03:02:52.829Z,13.86
2022-10-19T03:03:13.899Z,13.86
2022-10-19T03:03:34.957Z,13.86
2022-10-19T03:03:56.004Z,13.87
2022-10-19T03:04:17.067Z,13.86
2022-10-19T03:04:38.225Z,13.86
2022-10-19T03:04:59.277Z,13.86
2022-10-19T03:05:20.347Z,13.87
2022-10-19T03:05:41.400Z,13.86
2022-10-19T03:06:02.471Z,13.86
2022-10-19T03:06:23.496Z,13.85
2022-10-19T03:06:44.579Z,13.85
2022-10-19T03:07:05.612Z,13.85
2022-10-19T03:07:26.672Z,13.85
2022-10-19T03:07:47.723Z,13.85
2022-10-19T03:08:08.776Z,13.86
2022-10-19T03:08:29.812Z,13.85
2022-10-19T03:08:50.883Z,13.85
2022-10-19T03:09:11.922Z,13.85
2022-10-19T03:09:32.977Z,13.84
2022-10-19T03:09:54.037Z,13.85
2022-10-19T03:10:15.224Z,13.85
2022-10-19T03:10:36.284Z,13.85
2022-10-19T03:10:57.326Z,13.85
2022-10-19T03:11:18.374Z,13.84
2022-10-19T03:11:39.416Z,13.85
2022-10-19T03:12:00.472Z,13.84
2022-10-19T03:12:21.523Z,13.84
2022-10-19T03:12:42.576Z,13.84
2022-10-19T03:13:03.636Z,13.83
2022-10-19T03:13:24.674Z,13.84
2022-10-19T03:14:06.729Z,13.82
2022-10-19T03:14:27.762Z,13.82
2022-10-19T03:14:48.820Z,13.82
2022-10-19T03:15:09.871Z,13.81
2022-10-19T03:15:30.957Z,13.82
2022-10-19T03:15:51.993Z,13.81
2022-10-19T03:16:13.051Z,13.81
2022-10-19T03:16:34.098Z,13.81
2022-10-19T03:16:55.143Z,13.80
2022-10-19T03:17:16.195Z,13.81
2022-10-19T03:17:37.486Z,13.80
2022-10-19T03:17:58.567Z,13.80
2022-10-19T03:18:19.614Z,13.79
2022-10-19T03:18:40.665Z,13.78
2022-10-19T03:19:01.720Z,13.77
2022-10-19T03:19:22.775Z,13.77
2022-10-19T03:19:43.838Z,13.77
2022-10-19T03:20:04.890Z,13.76
2022-10-19T03:20:26.045Z,13.76
2022-10-19T03:20:47.094Z,13.76
2022-10-19T03:21:08.175Z,13.74
2022-10-19T03:21:29.208Z,13.75
2022-10-19T03:21:50.292Z,13.74
2022-10-19T03:22:11.357Z,13.74
2022-10-19T03:22:32.401Z,13.74
2022-10-19T03:23:14.475Z,13.73
2022-10-19T03:23:35.519Z,13.73
2022-10-19T03:23:56.569Z,13.72
2022-10-19T03:24:17.617Z,13.72
2022-10-19T03:24:38.674Z,13.72
2022-10-19T03:24:59.727Z,13.71
2022-10-19T03:25:20.788Z,13.71
2022-10-19T03:25:41.846Z,13.71
2022-10-19T03:26:02.898Z,13.69
2022-10-19T03:26:23.949Z,13.70
2022-10-19T03:26:45.011Z,13.68
2022-10-19T03:27:06.061Z,13.67
2022-10-19T03:27:27.120Z,13.66
2022-10-19T03:27:48.161Z,13.66
2022-10-19T03:28:09.215Z,13.65
2022-10-19T03:28:30.290Z,13.65
2022-10-19T03:28:51.331Z,13.64
2022-10-19T03:29:12.361Z,13.63
2022-10-19T03:29:33.409Z,13.63
2022-10-19T03:29:54.464Z,13.62
2022-10-19T03:30:15.513Z,13.62
2022-10-19T03:30:36.564Z,13.61
2022-10-19T03:30:57.629Z,13.61
2022-10-19T03:31:18.685Z,13.60
2022-10-19T03:31:39.775Z,13.60
2022-10-19T03:32:00.789Z,13.59
2022-10-19T03:32:21.843Z,13.57
2022-10-19T03:32:42.886Z,13.57
2022-10-19T03:33:03.937Z,13.57
2022-10-19T03:33:46.986Z,13.55
2022-10-19T03:34:08.034Z,13.54
2022-10-19T03:34:29.083Z,13.53
2022-10-19T03:34:50.132Z,13.53
2022-10-19T03:35:11.193Z,13.53
2022-10-19T03:35:32.255Z,13.52
2022-10-19T03:35:53.303Z,13.52
2022-10-19T03:36:14.396Z,13.51
2022-10-19T03:36:35.407Z,13.51
2022-10-19T03:36:56.594Z,13.50
2022-10-19T03:37:17.664Z,13.49
2022-10-19T03:37:38.715Z,13.49
2022-10-19T03:37:59.765Z,13.48
2022-10-19T03:38:20.822Z,13.48
2022-10-19T03:38:41.874Z,13.47
2022-10-19T03:39:02.931Z,13.47
2022-10-19T03:39:23.977Z,13.46
2022-10-19T03:39:45.027Z,13.45
2022-10-19T03:40:06.106Z,13.44
2022-10-19T03:40:27.146Z,13.44
2022-10-19T03:40:48.195Z,13.43
2022-10-19T03:41:09.246Z,13.42
2022-10-19T03:41:30.296Z,13.41
2022-10-19T03:41:51.351Z,13.41
2022-10-19T03:42:12.513Z,13.40
2022-10-19T03:42:33.576Z,13.39
2022-10-19T03:42:54.614Z,13.39
2022-10-19T03:43:15.668Z,13.37
2022-10-19T03:43:36.725Z,13.38
2022-10-19T03:43:57.843Z,13.37
2022-10-19T03:44:18.879Z,13.38
2022-10-19T03:44:39.936Z,13.36
2022-10-19T03:45:00.982Z,13.36
2022-10-19T03:45:22.032Z,13.36
2022-10-19T03:45:43.106Z,13.35
2022-10-19T03:46:04.153Z,13.35
2022-10-19T03:46:25.215Z,13.34
2022-10-19T03:46:46.266Z,13.34
2022-10-19T03:47:07.333Z,13.34
2022-10-19T03:47:28.381Z,13.34
2022-10-19T03:47:49.433Z,13.33
2022-10-19T03:48:10.516Z,13.33
2022-10-19T03:48:31.593Z,13.33
2022-10-19T03:48:52.650Z,13.32
2022-10-19T03:49:13.697Z,13.32
2022-10-19T03:49:38.056Z,13.31
2022-10-19T03:50:01.712Z,13.32
2022-10-19T03:50:22.756Z,13.31
2022-10-19T03:50:43.836Z,13.30
2022-10-19T03:51:04.904Z,13.30
2022-10-19T03:51:25.984Z,13.30
2022-10-19T03:51:47.007Z,13.29
2022-10-19T03:52:08.071Z,13.29
2022-10-19T03:52:29.121Z,13.28
2022-10-19T03:52:50.207Z,13.28
2022-10-19T03:53:11.240Z,13.27
2022-10-19T03:53:33.230Z,13.27
2022-10-19T03:53:54.422Z,13.27
2022-10-19T03:54:15.475Z,13.26
2022-10-19T03:54:36.528Z,13.26
2022-10-19T03:54:57.569Z,13.26
2022-10-19T03:55:18.624Z,13.26
2022-10-19T03:55:39.673Z,13.24
2022-10-19T03:56:00.846Z,13.24
2022-10-19T03:56:21.900Z,13.23
2022-10-19T03:56:42.954Z,13.22
2022-10-19T03:57:04.024Z,13.22
2022-10-19T03:57:25.084Z,13.21
2022-10-19T03:57:46.131Z,13.20
2022-10-19T03:58:07.194Z,13.20
2022-10-19T03:58:28.270Z,13.20
2022-10-19T03:58:49.322Z,13.19
2022-10-19T03:59:10.379Z,13.19
2022-10-19T03:59:31.436Z,13.18
2022-10-19T03:59:52.485Z,13.18
2022-10-19T04:00:13.536Z,13.18
2022-10-19T04:00:34.587Z,13.19
2022-10-19T04:00:55.697Z,13.17
2022-10-19T04:01:16.890Z,13.17
2022-10-19T04:01:37.954Z,13.16
2022-10-19T04:01:59.014Z,13.16
2022-10-19T04:02:20.068Z,13.16
2022-10-19T04:02:41.112Z,13.15
2022-10-19T04:03:02.161Z,13.15
2022-10-19T04:03:23.250Z,13.15
2022-10-19T04:03:44.292Z,13.15
2022-10-19T04:04:05.346Z,13.15
2022-10-19T04:04:26.394Z,13.14
2022-10-19T04:04:47.474Z,13.14
2022-10-19T04:05:08.519Z,13.14
2022-10-19T04:05:29.567Z,13.14
2022-10-19T04:05:50.618Z,13.14
2022-10-19T04:06:11.674Z,13.13
2022-10-19T04:06:32.859Z,13.13
2022-10-19T04:06:54.020Z,13.12
2022-10-19T04:07:15.071Z,13.13
2022-10-19T04:07:36.285Z,13.12
2022-10-19T04:07:57.411Z,13.12
2022-10-19T04:08:18.464Z,13.12
2022-10-19T04:08:39.526Z,13.11
2022-10-19T04:09:00.581Z,13.11
2022-10-19T04:09:21.640Z,13.11
2022-10-19T04:09:42.695Z,13.11
2022-10-19T04:10:03.765Z,13.11
2022-10-19T04:10:24.794Z,13.11
2022-10-19T04:10:45.842Z,13.11
2022-10-19T04:11:06.897Z,13.10
2022-10-19T04:11:27.941Z,13.10
2022-10-19T04:11:49.194Z,13.09
2022-10-19T04:12:10.255Z,13.10
2022-10-19T04:12:31.295Z,13.10
2022-10-19T04:12:53.880Z,13.09
2022-10-19T04:13:15.192Z,13.09
2022-10-19T04:13:36.248Z,13.09
2022-10-19T04:13:57.337Z,13.08
2022-10-19T04:14:26.834Z,13.08
2022-10-19T04:14:56.737Z,13.09
2022-10-19T04:15:12.306Z,13.08
2022-10-19T04:15:33.349Z,13.07
2022-10-19T04:15:54.509Z,13.08
2022-10-19T04:16:15.555Z,13.07
2022-10-19T04:16:36.602Z,13.07
2022-10-19T04:16:57.696Z,13.07
2022-10-19T04:17:18.751Z,13.07
2022-10-19T04:17:39.810Z,13.05
2022-10-19T04:18:00.857Z,13.06
2022-10-19T04:18:21.913Z,13.05
2022-10-19T04:18:43.062Z,13.04
2022-10-19T04:19:04.101Z,13.05
2022-10-19T04:19:25.157Z,13.05
2022-10-19T04:19:46.327Z,13.04
2022-10-19T04:20:07.389Z,13.04
2022-10-19T04:20:28.431Z,13.04
2022-10-19T04:20:49.494Z,13.04
2022-10-19T04:21:10.563Z,13.04
2022-10-19T04:21:31.614Z,13.03
2022-10-19T04:21:52.694Z,13.03
2022-10-19T04:22:13.742Z,13.04
2022-10-19T04:22:34.787Z,13.03
2022-10-19T04:22:55.843Z,13.03
2022-10-19T04:23:37.880Z,13.02
2022-10-19T04:23:58.947Z,13.01
2022-10-19T04:24:19.991Z,13.00
2022-10-19T04:24:41.037Z,13.00
2022-10-19T04:25:02.091Z,13.00
2022-10-19T04:25:23.172Z,13.00
2022-10-19T04:25:44.227Z,13.00
2022-10-19T04:26:05.389Z,12.99
2022-10-19T04:26:26.443Z,12.98
2022-10-19T04:26:47.499Z,12.99
2022-10-19T04:27:08.914Z,12.99
2022-10-19T04:27:29.935Z,12.99
2022-10-19T04:27:51.034Z,12.98
2022-10-19T04:28:12.115Z,12.99
2022-10-19T04:28:33.253Z,12.98
2022-10-19T04:28:54.404Z,12.98
2022-10-19T04:29:15.555Z,12.97
2022-10-19T04:29:36.645Z,12.98
2022-10-19T04:29:57.681Z,12.97
2022-10-19T04:30:18.781Z,12.97
2022-10-19T04:30:39.815Z,12.96
2022-10-19T04:31:00.974Z,12.96
2022-10-19T04:31:22.023Z,12.97
2022-10-19T04:31:43.097Z,12.96
2022-10-19T04:32:04.321Z,12.97
2022-10-19T04:32:25.411Z,12.96
2022-10-19T04:32:46.490Z,12.96
2022-10-19T04:33:07.530Z,12.96
2022-10-19T04:33:28.589Z,12.96
2022-10-19T04:33:49.647Z,12.95
2022-10-19T04:34:10.717Z,12.95
2022-10-19T04:34:34.187Z,12.95